BAF weather

Westfield-Barnes Regional Airport
Westfield/Springfield, Massachusetts, United States

Public forecast

Using degrees Fahrenheit for public forecast. Weather courtesy of forecast.io.

METAR (pilot weather report)

Retrieved 2019/07/23 18:53 UTC (9 minutes ago):

KBAF 231853Z 04008KT 10SM SCT041 OVC065 22/16 A2987 RMK AO2 SLP114 T02170161

TAF (pilot weather forecast)

Retrieved 2019/07/23 18:34 UTC (28 minutes ago):

TAF KBAF 231731Z 2318/2418 36010KT P6SM SCT025 OVC040 FM232300 00000KT P6SM OVC090 FM241000 36005KT P6SM BKN070 FM241400 01006KT P6SM SCT250 FM241700 01007KT P6SM FEW070